createdAt,value
2018-11-20T00:02:10.557Z,51.49
2018-11-20T00:05:04.735Z,51.22
2018-11-20T00:07:51.958Z,51.46
2018-11-20T00:10:50.569Z,51.45
2018-11-20T00:13:37.554Z,51.67
2018-11-20T00:16:14.746Z,51.95
2018-11-20T00:19:02.159Z,52.32
2018-11-20T00:22:08.273Z,52.41
2018-11-20T00:24:49.240Z,52.28
2018-11-20T00:27:30.595Z,52.30
2018-11-20T00:30:18.154Z,52.58
2018-11-20T00:33:06.337Z,52.48
2018-11-20T00:35:53.167Z,52.78
2018-11-20T00:38:33.009Z,52.61
2018-11-20T00:41:14.821Z,52.95
2018-11-20T00:44:06.763Z,52.65
2018-11-20T00:46:58.500Z,52.89
2018-11-20T00:49:42.611Z,53.08
2018-11-20T00:52:30.734Z,52.77
2018-11-20T00:55:19.110Z,52.85
2018-11-20T00:58:19.742Z,53.24
2018-11-20T01:01:13.860Z,53.28
2018-11-20T01:04:07.674Z,53.66
2018-11-20T01:07:01.855Z,54.20
2018-11-20T01:10:02.552Z,53.17
2018-11-20T01:12:49.731Z,53.21
2018-11-20T01:15:30.551Z,53.32
2018-11-20T01:18:13.214Z,53.95
2018-11-20T01:21:02.382Z,54.01
2018-11-20T01:23:49.384Z,54.01
2018-11-20T01:26:30.008Z,53.59
2018-11-20T01:29:13.601Z,53.15
2018-11-20T01:32:00.561Z,53.43
2018-11-20T01:34:45.009Z,53.14
2018-11-20T01:37:32.205Z,53.37
2018-11-20T01:40:24.871Z,53.21
2018-11-20T01:43:11.939Z,53.21
2018-11-20T01:45:48.522Z,53.89
2018-11-20T01:48:46.463Z,53.25
2018-11-20T01:51:34.944Z,53.48
2018-11-20T01:54:30.915Z,53.94
2018-11-20T01:57:25.100Z,54.52
2018-11-20T02:00:14.364Z,54.23
2018-11-20T02:03:02.588Z,53.74
2018-11-20T02:05:51.685Z,53.79
2018-11-20T02:08:40.398Z,53.84
2018-11-20T02:11:37.628Z,53.46
2018-11-20T02:14:50.787Z,53.14
2018-11-20T02:17:39.559Z,53.38
2018-11-20T02:20:39.693Z,53.56
2018-11-20T02:23:26.182Z,53.18
2018-11-20T02:26:13.087Z,53.03
2018-11-20T02:29:01.012Z,53.29
2018-11-20T02:31:41.858Z,53.19
2018-11-20T02:34:29.533Z,53.21
2018-11-20T02:37:27.723Z,52.68
2018-11-20T02:40:13.285Z,52.94
2018-11-20T02:42:59.650Z,53.25
2018-11-20T02:45:38.487Z,53.23
2018-11-20T02:48:31.096Z,53.41
2018-11-20T02:51:16.771Z,53.19
2018-11-20T02:54:16.986Z,54.15
2018-11-20T02:57:08.595Z,53.80
2018-11-20T02:59:57.052Z,53.00
2018-11-20T03:02:45.483Z,53.27
2018-11-20T03:05:39.548Z,53.25
2018-11-20T03:08:28.014Z,53.61
2018-11-20T03:11:22.346Z,53.32
2018-11-20T03:14:09.577Z,53.05
2018-11-20T03:16:57.767Z,53.37
2018-11-20T03:19:58.115Z,53.24
2018-11-20T03:22:49.665Z,53.12
2018-11-20T03:26:12.083Z,53.25
2018-11-20T03:29:37.000Z,53.47
2018-11-20T03:32:24.078Z,53.80
2018-11-20T03:35:17.560Z,53.43
2018-11-20T03:38:04.882Z,53.22
2018-11-20T03:40:52.972Z,53.45
2018-11-20T03:43:44.052Z,53.67
2018-11-20T03:46:32.127Z,53.49
2018-11-20T03:49:26.602Z,53.53
2018-11-20T03:52:14.713Z,53.31
2018-11-20T03:55:01.522Z,53.56
2018-11-20T03:58:04.964Z,53.47
2018-11-20T04:01:05.215Z,53.78
2018-11-20T04:04:11.470Z,53.62
2018-11-20T04:06:58.868Z,53.66
2018-11-20T04:09:50.300Z,53.63
2018-11-20T04:12:50.503Z,53.64
2018-11-20T04:15:47.837Z,53.89
2018-11-20T04:18:35.126Z,53.72
2018-11-20T04:21:19.384Z,54.22
2018-11-20T04:24:13.172Z,54.15
2018-11-20T04:26:56.808Z,53.82
2018-11-20T04:29:37.165Z,54.34
2018-11-20T04:32:27.657Z,54.35
2018-11-20T04:35:17.544Z,53.56
2018-11-20T04:38:05.698Z,53.53
2018-11-20T04:40:53.830Z,53.40
2018-11-20T04:43:41.157Z,53.84
2018-11-20T04:46:32.645Z,54.56
2018-11-20T04:49:30.104Z,53.15
2018-11-20T04:52:27.334Z,53.18
2018-11-20T04:55:13.751Z,53.59
2018-11-20T04:58:02.886Z,54.11
2018-11-20T05:00:49.856Z,54.80
2018-11-20T05:03:56.183Z,54.15
2018-11-20T05:06:46.746Z,53.62
2018-11-20T05:09:40.437Z,53.18
2018-11-20T05:12:33.940Z,52.66
2018-11-20T05:15:19.567Z,51.88
2018-11-20T05:18:06.172Z,52.00
2018-11-20T05:20:53.222Z,52.04
2018-11-20T05:23:32.197Z,53.34
2018-11-20T05:26:28.648Z,53.38
2018-11-20T05:29:16.896Z,53.20
2018-11-20T05:32:04.269Z,52.23
2018-11-20T05:34:53.167Z,51.74
2018-11-20T05:37:35.364Z,51.75
2018-11-20T05:40:18.293Z,52.22
2018-11-20T05:43:09.251Z,52.68
2018-11-20T05:45:56.292Z,52.92
2018-11-20T05:48:44.342Z,53.78
2018-11-20T05:51:26.790Z,53.03
2018-11-20T05:54:14.308Z,52.62
2018-11-20T05:57:11.324Z,53.34
2018-11-20T05:59:57.961Z,53.13
2018-11-20T06:02:44.781Z,53.99
2018-11-20T06:05:31.802Z,53.47
2018-11-20T06:08:18.598Z,54.07
2018-11-20T06:11:10.181Z,53.57
2018-11-20T06:13:51.591Z,53.32
2018-11-20T06:16:45.876Z,52.99
2018-11-20T06:19:24.295Z,52.54
2018-11-20T06:22:11.855Z,53.05
2018-11-20T06:25:02.993Z,53.14
2018-11-20T06:27:55.938Z,53.81
2018-11-20T06:30:42.048Z,52.65
2018-11-20T06:33:33.404Z,53.43
2018-11-20T06:36:23.060Z,53.74
2018-11-20T06:39:09.969Z,53.06
2018-11-20T06:42:16.669Z,52.71
2018-11-20T06:45:14.030Z,53.49
2018-11-20T06:47:53.728Z,52.53
2018-11-20T06:50:40.419Z,51.90
2018-11-20T06:53:27.398Z,52.88
2018-11-20T06:56:08.233Z,53.36
2018-11-20T06:58:59.772Z,53.41
2018-11-20T07:01:46.493Z,53.13
2018-11-20T07:04:30.621Z,52.69
2018-11-20T07:07:29.830Z,53.09
2018-11-20T07:10:16.224Z,53.27
2018-11-20T07:13:03.120Z,52.44
2018-11-20T07:15:44.153Z,52.54
2018-11-20T07:18:30.700Z,53.85
2018-11-20T07:21:17.535Z,53.15
2018-11-20T07:23:59.120Z,52.53
2018-11-20T07:26:53.045Z,52.60
2018-11-20T07:29:57.707Z,52.39
2018-11-20T07:32:51.645Z,52.74
2018-11-20T07:35:36.789Z,52.33
2018-11-20T07:38:37.686Z,53.46
2018-11-20T07:41:17.354Z,53.11
2018-11-20T07:44:16.243Z,52.91
2018-11-20T07:47:04.833Z,53.20
2018-11-20T07:49:52.197Z,53.61
2018-11-20T07:52:39.660Z,54.06
2018-11-20T07:55:24.165Z,53.75
2018-11-20T07:58:12.093Z,53.52
2018-11-20T08:01:03.181Z,52.84
2018-11-20T08:03:49.918Z,53.53
2018-11-20T08:06:37.264Z,53.58
2018-11-20T08:09:25.219Z,53.84
2018-11-20T08:12:13.727Z,53.03
2018-11-20T08:14:59.463Z,53.81
2018-11-20T08:17:50.959Z,53.95
2018-11-20T08:20:38.323Z,54.01
2018-11-20T08:23:29.357Z,52.82
2018-11-20T08:26:20.734Z,52.86
2018-11-20T08:29:14.841Z,53.67
2018-11-20T08:32:15.201Z,54.32
2018-11-20T08:34:54.543Z,53.99
2018-11-20T08:37:32.188Z,53.83
2018-11-20T08:40:25.574Z,53.57
2018-11-20T08:43:13.033Z,53.45
2018-11-20T08:45:57.354Z,53.63
2018-11-20T08:48:45.992Z,54.16
2018-11-20T08:51:49.630Z,53.47
2018-11-20T08:54:49.409Z,53.54
2018-11-20T08:57:36.341Z,53.29
2018-11-20T09:00:33.871Z,52.99
2018-11-20T09:03:19.505Z,53.21
2018-11-20T09:06:11.623Z,54.16
2018-11-20T09:08:54.825Z,53.93
2018-11-20T09:11:58.259Z,53.75
2018-11-20T09:14:52.080Z,53.64
2018-11-20T09:17:39.143Z,52.94
2018-11-20T09:20:28.356Z,53.66
2018-11-20T09:23:22.999Z,53.05
2018-11-20T09:26:14.046Z,52.68
2018-11-20T09:29:05.311Z,53.16
2018-11-20T09:31:52.586Z,53.87
2018-11-20T09:34:46.741Z,53.56
2018-11-20T09:37:49.726Z,53.80
2018-11-20T09:41:19.184Z,52.83
2018-11-20T09:44:09.536Z,53.45
2018-11-20T09:46:59.745Z,53.13
2018-11-20T09:49:56.995Z,52.97
2018-11-20T09:52:43.996Z,53.25
2018-11-20T09:55:34.821Z,53.40
2018-11-20T09:58:21.817Z,53.08
2018-11-20T10:01:02.876Z,52.89
2018-11-20T10:04:06.874Z,53.28
2018-11-20T10:07:00.947Z,52.74
2018-11-20T10:10:07.614Z,52.62
2018-11-20T10:12:56.001Z,52.75
2018-11-20T10:15:53.023Z,52.57
2018-11-20T10:18:39.642Z,53.62
2018-11-20T10:21:26.325Z,52.69
2018-11-20T10:24:18.613Z,52.90
2018-11-20T10:27:09.380Z,52.72
2018-11-20T10:29:53.145Z,52.82
2018-11-20T10:32:37.956Z,52.58
2018-11-20T10:35:26.419Z,52.33
2018-11-20T10:38:13.164Z,52.47
2018-11-20T10:40:59.449Z,52.60
2018-11-20T10:43:59.282Z,53.53
2018-11-20T10:46:54.798Z,52.89
2018-11-20T10:49:42.383Z,53.24
2018-11-20T10:52:20.103Z,52.92
2018-11-20T10:55:02.095Z,52.30
2018-11-20T10:58:05.300Z,51.98
2018-11-20T11:00:52.383Z,51.48
2018-11-20T11:03:39.190Z,52.22
2018-11-20T11:06:27.123Z,52.90
2018-11-20T11:09:14.315Z,52.87
2018-11-20T11:12:08.624Z,52.88
2018-11-20T11:14:55.848Z,52.23
2018-11-20T11:18:34.658Z,52.73
2018-11-20T11:21:20.743Z,52.30
2018-11-20T11:24:14.492Z,52.38
2018-11-20T11:27:05.846Z,52.39
2018-11-20T11:30:11.452Z,52.39
2018-11-20T11:33:10.861Z,52.86
2018-11-20T11:36:13.095Z,51.51
2018-11-20T11:38:59.761Z,51.66
2018-11-20T11:42:05.581Z,51.88
2018-11-20T11:45:02.421Z,51.78
2018-11-20T11:48:10.247Z,51.75
2018-11-20T11:50:56.105Z,51.33
2018-11-20T11:53:45.922Z,50.83
2018-11-20T11:56:32.302Z,51.40
2018-11-20T11:59:19.865Z,50.94
2018-11-20T12:04:53.072Z,51.25
2018-11-20T12:07:39.439Z,51.06
2018-11-20T12:10:30.537Z,52.19
2018-11-20T12:15:58.733Z,51.95
2018-11-20T12:18:56.498Z,51.98
2018-11-20T12:21:42.692Z,52.24
2018-11-20T12:24:20.364Z,52.49
2018-11-20T12:27:08.808Z,52.22
2018-11-20T12:29:57.359Z,52.24
2018-11-20T12:32:49.415Z,52.35
2018-11-20T12:35:38.556Z,51.80
2018-11-20T12:38:19.580Z,52.10
2018-11-20T12:41:11.982Z,52.28
2018-11-20T12:44:11.606Z,52.55
2018-11-20T12:47:15.111Z,52.27
2018-11-20T12:50:05.112Z,52.84
2018-11-20T12:53:07.622Z,52.49
2018-11-20T12:56:15.706Z,53.14
2018-11-20T12:59:14.001Z,53.26
2018-11-20T13:01:59.957Z,53.17
2018-11-20T13:04:58.480Z,53.29
2018-11-20T13:07:54.917Z,52.99
2018-11-20T13:10:52.941Z,53.21
2018-11-20T13:16:22.572Z,53.73
2018-11-20T13:19:10.179Z,53.21
2018-11-20T13:22:09.594Z,53.30
2018-11-20T13:24:48.997Z,53.02
2018-11-20T13:27:31.591Z,53.21
2018-11-20T13:30:22.466Z,53.84
2018-11-20T13:33:10.565Z,53.77
2018-11-20T13:35:57.256Z,53.84
2018-11-20T13:38:47.370Z,53.63
2018-11-20T13:42:03.601Z,54.54
2018-11-20T13:44:44.562Z,53.75
2018-11-20T13:47:26.688Z,53.95
2018-11-20T13:50:13.176Z,54.19
2018-11-20T13:53:07.188Z,54.11
2018-11-20T13:55:53.368Z,53.95
2018-11-20T13:58:39.526Z,54.25
2018-11-20T14:01:30.053Z,53.90
2018-11-20T14:04:16.695Z,53.97
2018-11-20T14:07:16.037Z,54.70
2018-11-20T14:09:56.469Z,54.83
2018-11-20T14:12:52.541Z,54.20
2018-11-20T14:15:38.233Z,54.21
2018-11-20T14:18:24.343Z,54.00
2018-11-20T14:21:10.452Z,54.33
2018-11-20T14:24:13.491Z,54.78
2018-11-20T14:26:59.904Z,55.27
2018-11-20T14:29:46.139Z,55.15
2018-11-20T14:32:39.789Z,54.78
2018-11-20T14:35:26.394Z,54.92
2018-11-20T14:38:07.827Z,54.97
2018-11-20T14:40:54.098Z,55.06
2018-11-20T14:43:40.985Z,54.73
2018-11-20T14:46:39.888Z,54.93
2018-11-20T14:49:41.103Z,54.80
2018-11-20T14:52:27.225Z,54.95
2018-11-20T14:55:13.440Z,55.59
2018-11-20T14:58:03.421Z,55.66
2018-11-20T15:00:48.005Z,55.43
2018-11-20T15:03:34.003Z,55.89
2018-11-20T15:06:21.293Z,55.48
2018-11-20T15:09:17.705Z,55.68
2018-11-20T15:12:05.289Z,55.71
2018-11-20T15:14:56.062Z,55.12
2018-11-20T15:17:39.723Z,55.43
2018-11-20T15:20:26.742Z,55.57
2018-11-20T15:23:13.632Z,55.44
2018-11-20T15:26:04.150Z,55.33
2018-11-20T15:28:50.423Z,55.40
2018-11-20T15:31:44.022Z,55.20
2018-11-20T15:34:40.267Z,55.46
2018-11-20T15:37:27.098Z,55.65
2018-11-20T15:40:02.572Z,55.38
2018-11-20T15:42:56.039Z,55.76
2018-11-20T15:45:40.469Z,55.86
2018-11-20T15:48:27.151Z,55.08
2018-11-20T15:51:20.427Z,55.35
2018-11-20T15:54:06.648Z,55.12
2018-11-20T15:56:53.879Z,54.85
2018-11-20T15:59:35.566Z,54.99
2018-11-20T16:02:21.726Z,55.04
2018-11-20T16:05:04.162Z,55.09
2018-11-20T16:07:54.295Z,54.99
2018-11-20T16:10:53.762Z,55.30
2018-11-20T16:13:41.044Z,54.96
2018-11-20T16:16:15.653Z,54.94
2018-11-20T16:19:03.928Z,55.11
2018-11-20T16:21:51.511Z,54.89
2018-11-20T16:24:55.871Z,54.73
2018-11-20T16:27:40.179Z,54.78
2018-11-20T16:30:28.377Z,55.06
2018-11-20T16:33:31.294Z,55.89
2018-11-20T16:36:18.563Z,55.71
2018-11-20T16:39:03.584Z,55.31
2018-11-20T16:41:50.026Z,55.40
2018-11-20T16:44:36.031Z,54.88
2018-11-20T16:47:22.845Z,55.38
2018-11-20T16:50:10.793Z,55.37
2018-11-20T16:52:56.899Z,55.44
2018-11-20T16:55:36.286Z,55.89
2018-11-20T16:58:42.050Z,56.26
2018-11-20T17:01:29.983Z,56.62
2018-11-20T17:04:35.762Z,56.74
2018-11-20T17:07:21.922Z,56.47
2018-11-20T17:10:08.160Z,56.45
2018-11-20T17:13:00.047Z,56.85
2018-11-20T17:15:46.169Z,56.33
2018-11-20T17:18:26.369Z,56.77
2018-11-20T17:21:12.951Z,56.59
2018-11-20T17:24:12.517Z,56.21
2018-11-20T17:27:00.513Z,56.25
2018-11-20T17:29:54.169Z,55.96
2018-11-20T17:32:35.303Z,56.85
2018-11-20T17:35:21.746Z,56.56
2018-11-20T17:38:18.376Z,56.72
2018-11-20T17:41:04.129Z,56.67
2018-11-20T17:43:42.616Z,56.58
2018-11-20T17:46:29.051Z,57.85
2018-11-20T17:49:14.887Z,57.09
2018-11-20T17:52:02.608Z,57.07
2018-11-20T17:54:52.923Z,57.38
2018-11-20T17:57:37.546Z,57.00
2018-11-20T18:00:24.742Z,57.13
2018-11-20T18:03:29.708Z,57.45
2018-11-20T18:06:21.638Z,57.19
2018-11-20T18:09:07.853Z,57.26
2018-11-20T18:11:54.253Z,57.82
2018-11-20T18:14:54.316Z,57.88
2018-11-20T18:17:40.305Z,58.20
2018-11-20T18:20:34.178Z,57.65
2018-11-20T18:23:21.287Z,57.43
2018-11-20T18:25:58.398Z,57.38
2018-11-20T18:28:44.594Z,57.52
2018-11-20T18:31:50.916Z,58.65
2018-11-20T18:34:46.369Z,57.97
2018-11-20T18:37:24.918Z,58.02
2018-11-20T18:40:11.769Z,58.09
2018-11-20T18:42:58.316Z,58.73
2018-11-20T18:45:45.039Z,58.53
2018-11-20T18:48:24.164Z,58.25
2018-11-20T18:51:10.258Z,58.15
2018-11-20T18:54:08.357Z,58.25
2018-11-20T18:57:05.428Z,58.41
2018-11-20T18:59:52.984Z,58.52
2018-11-20T19:02:43.308Z,58.77
2018-11-20T19:05:29.844Z,58.93
2018-11-20T19:08:36.250Z,58.94
2018-11-20T19:11:29.375Z,58.80
2018-11-20T19:14:10.283Z,59.48
2018-11-20T19:16:56.763Z,58.80
2018-11-20T19:19:56.194Z,58.88
2018-11-20T19:23:00.884Z,58.74
2018-11-20T19:26:04.640Z,58.99
2018-11-20T19:28:50.539Z,59.07
2018-11-20T19:31:53.074Z,59.09
2018-11-20T19:34:33.496Z,59.52
2018-11-20T19:37:25.077Z,59.43
2018-11-20T19:40:12.377Z,59.37
2018-11-20T19:43:04.504Z,59.47
2018-11-20T19:45:50.676Z,59.54
2018-11-20T19:48:30.168Z,59.37
2018-11-20T19:51:20.437Z,59.73
2018-11-20T19:54:09.218Z,59.90
2018-11-20T19:57:02.046Z,59.84
2018-11-20T19:59:48.924Z,59.99
2018-11-20T20:02:36.645Z,60.01
2018-11-20T20:05:21.620Z,60.14
2018-11-20T20:08:09.565Z,60.68
2018-11-20T20:10:49.902Z,60.52
2018-11-20T20:13:36.527Z,60.72
2018-11-20T20:16:23.604Z,60.85
2018-11-20T20:19:16.037Z,60.89
2018-11-20T20:22:19.003Z,60.75
2018-11-20T20:25:05.494Z,60.85
2018-11-20T20:27:59.058Z,61.03
2018-11-20T20:30:39.099Z,61.22
2018-11-20T20:33:36.684Z,61.75
2018-11-20T20:36:32.409Z,61.83
2018-11-20T20:39:19.036Z,61.89
2018-11-20T20:42:05.215Z,61.81
2018-11-20T20:44:52.555Z,61.99
2018-11-20T20:47:39.256Z,62.23
2018-11-20T20:50:23.192Z,62.57
2018-11-20T20:53:28.968Z,62.55
2018-11-20T20:56:06.451Z,62.59
2018-11-20T20:59:12.113Z,62.98
2018-11-20T21:01:58.426Z,63.13
2018-11-20T21:04:54.933Z,63.22
2018-11-20T21:07:43.321Z,63.50
2018-11-20T21:10:31.921Z,63.80
2018-11-20T21:13:18.215Z,63.65
2018-11-20T21:16:08.117Z,63.93
2018-11-20T21:18:55.215Z,64.36
2018-11-20T21:21:43.250Z,64.37
2018-11-20T21:24:25.101Z,64.13
2018-11-20T21:27:24.668Z,63.96
2018-11-20T21:30:11.303Z,63.99
2018-11-20T21:32:51.472Z,63.83
2018-11-20T21:35:51.155Z,63.45
2018-11-20T21:38:41.710Z,63.35
2018-11-20T21:41:31.721Z,63.56
2018-11-20T21:44:13.610Z,63.75
2018-11-20T21:46:59.666Z,63.63
2018-11-20T21:49:45.736Z,63.60
2018-11-20T21:52:26.289Z,63.21
2018-11-20T21:55:12.628Z,63.29
2018-11-20T21:57:55.219Z,63.22
2018-11-20T22:00:50.983Z,63.10
2018-11-20T22:03:31.553Z,62.91
2018-11-20T22:06:16.220Z,62.76
2018-11-20T22:08:53.836Z,62.50
2018-11-20T22:11:33.052Z,62.79
2018-11-20T22:14:36.039Z,62.90
2018-11-20T22:17:23.603Z,62.96
2018-11-20T22:20:11.212Z,62.70
2018-11-20T22:23:13.651Z,62.58
2018-11-20T22:25:57.544Z,62.41
2018-11-20T22:28:43.983Z,62.45
2018-11-20T22:31:31.582Z,62.47
2018-11-20T22:34:19.522Z,62.39
2018-11-20T22:37:18.927Z,62.44
2018-11-20T22:40:05.401Z,62.30
2018-11-20T22:42:51.562Z,62.42
2018-11-20T22:45:44.318Z,62.41
2018-11-20T22:48:36.922Z,62.59
2018-11-20T22:51:24.711Z,62.33
2018-11-20T22:54:01.583Z,62.30
2018-11-20T22:56:49.137Z,62.59
2018-11-20T22:59:27.251Z,62.12
2018-11-20T23:02:20.386Z,62.05
2018-11-20T23:04:58.312Z,62.25
2018-11-20T23:07:44.822Z,62.24
2018-11-20T23:10:15.023Z,62.40
2018-11-20T23:12:44.210Z,62.38
2018-11-20T23:15:14.047Z,62.38
2018-11-20T23:17:42.458Z,62.24
2018-11-20T23:20:11.519Z,62.30
2018-11-20T23:22:40.353Z,62.14
2018-11-20T23:25:10.805Z,62.06
2018-11-20T23:27:39.033Z,61.99
2018-11-20T23:30:12.502Z,62.19
2018-11-20T23:32:42.088Z,61.91
2018-11-20T23:35:12.219Z,61.75
2018-11-20T23:37:41.498Z,62.18
2018-11-20T23:40:11.116Z,62.36
2018-11-20T23:42:39.838Z,62.28
2018-11-20T23:45:11.428Z,62.18
2018-11-20T23:47:39.971Z,62.19
2018-11-20T23:50:10.650Z,62.33
2018-11-20T23:52:39.635Z,62.36
2018-11-20T23:55:10.887Z,62.44
2018-11-20T23:57:39.330Z,62.39
